Aeroporto :
LOGIN :

Iscrizione | Disclaimer

   EN    FR    IT 

 










Sommario :    VFR   VFR Marginale   IFR   IFR Intensivo   IFR Molto Intensivo
Visibilità : 
Base nubi : 
>= 8 km
>= 3000ft
5 / 8 km
1000 / 3000 ft
1500m / 5 km
500 / 1000 ft
800 / 1500m
200 / 500 ft
< 800m
< 200 ft
Simboli :   Temporali  Nebbia  Neve Forte  Precipitazioni Forti  Vento > 20 kt
SIGMETs :   Varie  Temporali  Ghiacco  Turbolenza  Onda orograficha  Ceneri Vulcaniche






- Altitudine del aeroporto : 102 ft
- Codice IATA : CNG


LFBG - Cognac

ULTIMO METAR :
  • 230300Z AUTO 20001KT CAVOK 15/14 Q1023

METARs OBSOLETI :
  • 230230Z AUTO 15001KT CAVOK 16/14 Q1023
  • 230200Z AUTO 24002KT CAVOK 16/15 Q1023
  • 230130Z AUTO 27001KT CAVOK 17/15 Q1023
  • 230100Z AUTO 21002KT CAVOK 17/15 Q1023
  • 230030Z AUTO 30003KT CAVOK 18/15 Q1023
  • 230000Z AUTO 30003KT 9999 FEW021 18/15 Q1024
  • 222330Z AUTO VRB02KT 9999 BKN021 19/15 Q1024
  • 222300Z AUTO 30004KT 250V350 9999 OVC021 20/15 Q1024
  • 222230Z AUTO 33003KT 300V010 9999 OVC020 20/15 Q1024
  • 222200Z AUTO 28004KT 9999 OVC020 20/15 Q1024

TAF TAF LFBG
Valido dal 22 a 15 ore il 23 a 15 ore UTC


221400Z 2215/2315 25005KT 9999 BKN035
TEMPO 2302/2311 BKN014
PROB40
TEMPO 2311/2315 5000 -DZRA



MetMap, La meteo Aeronautica in un colpo d'occhio ! - Copyright ORBIFLY Dicembre 2007 - Disclaimer

ORBIFLY MET'MAP TEAM :

Programmazione e sviluppo : Alexandra Zaïnal
Concezione : Baudouin d'Aumeries
Supporto tecnico e logistico : Manuel Goepfert
Aiuto : Marc-Olivier Méhu
Aiuto per la traduzione : Arnaldo La Scala




FONTI E CREDITI :

   NOAA